Time;durP1;ratioP1;P1;durP2;ratioP2;P2;SDS_P1;SDS_P2;PMS_P1;PMS_P2;Temp;Humidity;BMP_temperature;BMP_pressure;BME280_temperature;BME280_humidity;BME280_pressure;Samples;Min_cycle;Max_cycle;Signal;HPM_P1;HPM_P2
2022/04/10 00:01:27;;;;;;;7.23;3.70;;;;;;;13.93;52.30;93720.44;5000354;28;20533;-82
2022/04/10 00:03:54;;;;;;;5.00;3.83;;;;;;;13.97;53.04;93738.53;5035411;28;20828;-82
2022/04/10 00:06:23;;;;;;;5.30;3.43;;;;;;;13.96;53.05;93719.25;5035144;28;20542;-82
2022/04/10 00:08:49;;;;;;;6.67;3.47;;;;;;;13.83;53.58;93708.47;5000068;28;20462;-82
2022/04/10 00:11:16;;;;;;;4.23;3.20;;;;;;;13.92;53.63;93710.06;5034965;28;20454;-81
2022/04/10 00:13:43;;;;;;;5.17;4.63;;;;;;;13.92;53.23;93716.16;5034958;28;20828;-82
2022/04/10 00:16:12;;;;;;;8.77;4.07;;;;;;;13.97;52.87;93691.88;5035035;28;20447;-82
2022/04/10 00:18:39;;;;;;;5.27;3.60;;;;;;;14.06;53.02;93701.34;5034736;28;21001;-82
2022/04/10 00:21:07;;;;;;;5.83;3.73;;;;;;;14.11;53.05;93698.16;5035313;28;20524;-82
2022/04/10 00:23:36;;;;;;;4.77;3.50;;;;;;;14.15;52.96;93678.31;5034658;28;20486;-82
2022/04/10 00:26:03;;;;;;;6.80;3.47;;;;;;;14.07;52.14;93666.03;5035102;28;20435;-82
2022/04/10 00:28:29;;;;;;;3.63;3.33;;;;;;;14.12;52.87;93683.97;5034604;28;20450;-82
2022/04/10 00:30:56;;;;;;;7.20;3.53;;;;;;;14.11;52.68;93677.88;5034463;28;20454;-82
2022/04/10 00:33:23;;;;;;;7.97;3.93;;;;;;;14.10;52.78;93686.78;5034786;28;20450;-82
2022/04/10 00:35:50;;;;;;;11.53;4.20;;;;;;;14.08;53.11;93686.16;5034568;28;20455;-82
2022/04/10 00:38:17;;;;;;;6.07;3.97;;;;;;;14.10;53.28;93686.78;5034240;28;20478;-83
2022/04/10 00:40:45;;;;;;;6.80;3.93;;;;;;;14.09;52.97;93685.16;5034292;28;20442;-82
2022/04/10 00:43:12;;;;;;;8.13;3.07;;;;;;;14.08;53.21;93677.41;5034328;28;20465;-82
2022/04/10 00:45:39;;;;;;;9.07;4.40;;;;;;;14.10;52.81;93675.41;5015561;28;20443;-82
2022/04/10 00:48:06;;;;;;;4.83;3.60;;;;;;;14.13;52.80;93680.31;5032040;28;20465;-82
2022/04/10 00:50:33;;;;;;;7.33;3.67;;;;;;;14.15;52.99;93681.78;5034467;28;20470;-82
2022/04/10 00:53:00;;;;;;;6.80;4.10;;;;;;;14.17;52.31;93677.16;5034019;28;20821;-82
2022/04/10 00:55:28;;;;;;;3.87;3.23;;;;;;;14.24;52.22;93680.72;5034037;28;20447;-82
2022/04/10 00:57:56;;;;;;;5.67;3.63;;;;;;;14.27;52.82;93682.97;5034225;28;20843;-82
2022/04/10 01:00:23;;;;;;;5.03;4.20;;;;;;;14.25;53.08;93671.78;5033952;28;20447;-82
2022/04/10 01:02:50;;;;;;;10.93;5.23;;;;;;;14.21;52.84;93672.34;5033851;28;20483;-82
2022/04/10 01:05:16;;;;;;;6.63;3.50;;;;;;;14.18;52.69;93673.53;5034107;28;20442;-82
2022/04/10 01:07:43;;;;;;;11.97;4.00;;;;;;;14.17;52.90;93677.16;5033465;28;20520;-82
2022/04/10 01:10:10;;;;;;;9.57;4.10;;;;;;;14.16;53.20;93675.50;4999202;28;20454;-82
2022/04/10 01:12:37;;;;;;;6.70;3.70;;;;;;;14.18;53.01;93665.59;5033674;28;20446;-82
2022/04/10 01:15:06;;;;;;;8.70;4.07;;;;;;;14.17;53.00;93656.06;5033999;28;20477;-82
2022/04/10 01:17:35;;;;;;;6.90;4.20;;;;;;;14.19;53.28;93654.06;5033777;28;20483;-82
2022/04/10 01:20:04;;;;;;;11.20;3.90;;;;;;;14.19;53.04;93659.34;5033828;28;20450;-82
2022/04/10 01:22:33;;;;;;;7.93;4.87;;;;;;;14.02;54.02;93652.59;5033736;28;20447;-82
2022/04/10 01:25:03;;;;;;;8.13;4.50;;;;;;;13.47;55.73;93652.94;5033452;28;20446;-82
2022/04/10 01:27:30;;;;;;;6.40;4.90;;;;;;;13.31;57.33;93638.09;5033561;28;20457;-82
2022/04/10 01:29:56;;;;;;;9.00;5.20;;;;;;;13.17;56.83;93642.31;5033441;28;20447;-82
2022/04/10 01:32:23;;;;;;;8.33;5.00;;;;;;;13.16;57.05;93637.19;5033588;28;20454;-82
2022/04/10 01:34:52;;;;;;;8.87;4.70;;;;;;;13.13;56.84;93640.19;5033562;28;20489;-82
2022/04/10 01:37:20;;;;;;;6.80;4.87;;;;;;;13.14;57.33;93639.19;5033369;28;20490;-82
2022/04/10 01:39:48;;;;;;;18.63;5.03;;;;;;;13.17;56.89;93639.69;5033320;28;20504;-82
2022/04/10 01:42:15;;;;;;;8.43;5.07;;;;;;;13.21;57.45;93638.34;5033290;28;20457;-82
2022/04/10 01:44:43;;;;;;;13.25;5.20;;;;;;;13.26;57.09;93640.44;5033270;28;20453;-82
2022/04/10 01:47:10;;;;;;;9.03;5.00;;;;;;;13.30;57.18;93636.47;5033457;28;20230;-82
2022/04/10 01:49:37;;;;;;;7.43;5.07;;;;;;;13.35;55.94;93643.84;5033183;28;20832;-82
2022/04/10 01:52:06;;;;;;;7.23;4.43;;;;;;;13.35;56.71;93659.66;5033445;28;20447;-82
2022/04/10 01:54:33;;;;;;;6.70;4.17;;;;;;;13.37;56.40;93660.28;5033125;28;20443;-82
2022/04/10 01:57:01;;;;;;;13.10;5.27;;;;;;;13.29;56.65;93666.41;5032829;28;20443;-82
2022/04/10 01:59:29;;;;;;;7.10;4.70;;;;;;;13.12;57.80;93664.88;5014255;28;20447;-82
2022/04/10 02:01:57;;;;;;;10.30;5.70;;;;;;;13.15;57.90;93643.47;5032783;28;20501;-82
2022/04/10 02:04:24;;;;;;;4.90;4.13;;;;;;;13.16;56.92;93643.28;5032667;28;20450;-82
2022/04/10 02:06:51;;;;;;;8.50;4.40;;;;;;;13.14;57.75;93653.19;5033211;28;20439;-82
2022/04/10 02:09:18;;;;;;;10.03;4.67;;;;;;;13.15;57.12;93643.47;5032927;28;21021;-82
2022/04/10 02:11:46;;;;;;;6.67;3.10;;;;;;;13.15;57.51;93638.19;5032671;28;20988;-82
2022/04/10 02:14:15;;;;;;;4.67;4.10;;;;;;;13.12;57.39;93659.63;4997794;28;20458;-82
2022/04/10 02:16:41;;;;;;;4.10;3.13;;;;;;;13.15;57.88;93661.91;4998151;28;20450;-82
2022/04/10 02:19:08;;;;;;;10.43;4.37;;;;;;;13.16;57.96;93653.00;5031909;28;20498;-83
2022/04/10 02:21:36;;;;;;;6.70;4.00;;;;;;;13.13;57.84;93648.09;4997810;28;20466;-83
2022/04/10 02:24:03;;;;;;;6.17;3.80;;;;;;;13.10;57.51;93644.00;5032710;28;20461;-82
2022/04/10 02:26:29;;;;;;;10.20;3.97;;;;;;;13.10;57.29;93656.34;5032831;28;20477;-83
2022/04/10 02:28:56;;;;;;;4.40;3.50;;;;;;;13.10;57.38;93656.34;5032790;28;20446;-83
2022/04/10 02:31:25;;;;;;;5.00;3.53;;;;;;;13.11;58.02;93653.53;5032526;28;20443;-83
2022/04/10 02:33:52;;;;;;;6.23;3.63;;;;;;;13.10;57.60;93648.44;4998172;28;20453;-82
2022/04/10 02:36:19;;;;;;;6.70;4.30;;;;;;;13.10;58.22;93656.34;5032681;28;20442;-82
2022/04/10 02:38:46;;;;;;;6.87;3.80;;;;;;;13.18;57.86;93656.31;5032955;28;20478;-83
2022/04/10 02:41:13;;;;;;;8.50;3.90;;;;;;;13.22;57.52;93668.13;5032565;28;20442;-83
2022/04/10 02:43:40;;;;;;;5.63;3.40;;;;;;;13.24;57.64;93668.75;5032531;28;20446;-82
2022/04/10 02:46:07;;;;;;;5.73;3.80;;;;;;;13.27;57.46;93658.69;5032330;28;20482;-82
2022/04/10 02:48:36;;;;;;;6.37;4.03;;;;;;;13.29;57.66;93666.41;5032479;28;20457;-82
2022/04/10 02:51:03;;;;;;;6.93;4.27;;;;;;;13.25;57.42;93665.97;4997394;28;20478;-82
2022/04/10 02:53:30;;;;;;;7.57;4.27;;;;;;;13.25;57.51;93654.59;5032813;28;20492;-83
2022/04/10 02:55:57;;;;;;;5.73;4.03;;;;;;;13.31;58.24;93664.47;4997670;28;20442;-83
2022/04/10 02:58:24;;;;;;;4.33;3.30;;;;;;;13.26;57.37;93650.97;5032236;28;20482;-82
2022/04/10 03:00:51;;;;;;;5.20;3.77;;;;;;;13.31;57.61;93665.28;5032711;28;20443;-82
2022/04/10 03:03:18;;;;;;;6.37;4.30;;;;;;;13.37;57.54;93660.28;5032529;28;20443;-82
2022/04/10 03:05:46;;;;;;;11.23;3.87;;;;;;;13.44;57.64;93654.13;4997766;28;20445;-83
2022/04/10 03:08:13;;;;;;;6.53;4.17;;;;;;;13.48;57.72;93671.22;5032110;28;20453;-83
2022/04/10 03:10:40;;;;;;;6.43;4.67;;;;;;;13.42;57.44;93657.94;5032262;28;20512;-83
2022/04/10 03:13:07;;;;;;;5.00;3.80;;;;;;;13.29;57.73;93666.41;5013849;28;20454;-83
2022/04/10 03:15:34;;;;;;;4.43;3.70;;;;;;;13.24;58.22;93684.56;5032379;28;20961;-82
2022/04/10 03:18:01;;;;;;;6.57;3.90;;;;;;;13.19;58.98;93685.09;5033937;28;20482;-83
2022/04/10 03:20:28;;;;;;;5.70;3.87;;;;;;;13.28;58.56;93685.84;5034550;28;20458;-83
2022/04/10 03:22:57;;;;;;;5.40;3.40;;;;;;;13.27;58.62;93676.31;5031882;28;20473;-82
2022/04/10 03:25:24;;;;;;;6.87;3.80;;;;;;;13.27;58.67;93677.13;4997362;28;20453;-83
2022/04/10 03:27:50;;;;;;;3.80;3.50;;;;;;;13.29;58.79;93679.59;5031924;28;20497;-83
2022/04/10 03:30:18;;;;;;;5.63;4.90;;;;;;;13.26;59.44;93682.56;5033952;28;20447;-82
2022/04/10 03:32:45;;;;;;;12.87;4.63;;;;;;;13.24;59.52;93700.38;5035923;28;20453;-81
2022/04/10 03:35:12;;;;;;;6.57;3.40;;;;;;;13.16;59.02;93679.34;5035747;28;20461;-83
2022/04/10 03:37:39;;;;;;;9.67;5.73;;;;;;;12.84;59.75;93672.47;5035760;28;21028;-84
2022/04/10 03:40:08;;;;;;;7.13;3.90;;;;;;;12.83;59.80;93690.06;5035835;28;20453;-83
2022/04/10 03:42:39;;;;;;;9.37;4.30;;;;;;;12.85;60.78;93706.53;5035400;28;20442;-83
2022/04/10 03:45:08;;;;;;;8.03;4.10;;;;;;;12.81;60.50;93699.97;5035696;28;20442;-83
2022/04/10 03:47:35;;;;;;;7.63;4.40;;;;;;;12.83;60.61;93697.97;5035455;28;20447;-83
2022/04/10 03:50:02;;;;;;;9.30;4.37;;;;;;;12.93;60.58;93698.56;5035442;28;20480;-83
2022/04/10 03:52:29;;;;;;;9.07;4.57;;;;;;;12.99;59.73;93689.97;5035807;28;20450;-83
2022/04/10 03:54:55;;;;;;;4.50;4.10;;;;;;;13.10;59.61;93698.47;5035498;28;20446;-82
2022/04/10 03:57:24;;;;;;;11.23;3.90;;;;;;;13.15;59.98;93693.50;5035569;28;20446;-84
2022/04/10 03:59:50;;;;;;;10.10;4.30;;;;;;;13.18;59.14;93691.38;5000376;28;20491;-83
2022/04/10 04:02:18;;;;;;;6.00;4.20;;;;;;;12.98;59.40;93680.44;5035420;28;20926;-84
2022/04/10 04:04:44;;;;;;;9.85;4.80;;;;;;;12.52;61.44;93689.25;5034258;28;20437;-82
2022/04/10 04:07:12;;;;;;;5.40;4.60;;;;;;;12.76;60.76;93689.13;5035088;28;20594;-82
2022/04/10 04:09:39;;;;;;;7.07;4.83;;;;;;;12.64;62.20;93696.59;5032933;28;20450;-82
2022/04/10 04:12:08;;;;;;;8.27;5.40;;;;;;;12.51;63.00;93700.75;5034958;28;20442;-82
2022/04/10 04:14:36;;;;;;;20.83;6.27;;;;;;;12.34;64.16;93708.72;5016450;28;20524;-83
2022/04/10 04:17:03;;;;;;;6.63;4.80;;;;;;;12.33;63.99;93717.59;5034900;28;20453;-82
2022/04/10 04:19:30;;;;;;;10.20;6.50;;;;;;;12.19;65.15;93706.97;5034763;28;21056;-83
2022/04/10 04:21:57;;;;;;;12.10;7.27;;;;;;;12.10;64.83;93724.56;5034777;28;20663;-82
2022/04/10 04:24:24;;;;;;;18.43;7.27;;;;;;;12.23;64.58;93747.72;5034695;28;20439;-83
2022/04/10 04:26:51;;;;;;;17.23;7.03;;;;;;;12.33;65.16;93738.63;5034719;28;20465;-82
2022/04/10 04:29:18;;;;;;;14.00;6.97;;;;;;;12.33;nan;93733.38;5034711;28;20450;-82
2022/04/10 04:31:46;;;;;;;14.93;7.60;;;;;;;12.32;66.07;93721.22;5034659;28;20445;-82
2022/04/10 04:34:13;;;;;;;12.20;8.27;;;;;;;12.05;70.29;93717.16;5034398;28;20447;-83
2022/04/10 04:36:40;;;;;;;13.63;8.67;;;;;;;12.02;71.25;93766.63;5016130;28;20462;-83
2022/04/10 04:39:07;;;;;;;10.00;8.07;;;;;;;12.01;71.30;93751.84;5034560;28;20479;-82
2022/04/10 04:41:34;;;;;;;18.63;8.50;;;;;;;12.04;68.56;93749.72;5033995;28;20453;-83
2022/04/10 04:44:01;;;;;;;11.63;9.03;;;;;;;12.05;70.00;93771.56;5015904;28;20457;-83
2022/04/10 04:46:28;;;;;;;12.33;8.90;;;;;;;12.18;71.34;93763.19;5034366;28;20457;-83
2022/04/10 04:48:56;;;;;;;20.53;10.27;;;;;;;12.19;73.99;93777.97;5034111;28;20538;-83
2022/04/10 04:51:23;;;;;;;13.60;11.00;;;;;;;12.23;75.22;93798.50;5034273;28;20785;-82
2022/04/10 04:53:50;;;;;;;13.10;10.10;;;;;;;12.28;75.27;93775.16;5034325;28;20447;-83
2022/04/10 04:56:17;;;;;;;23.27;15.23;;;;;;;12.11;76.94;93786.66;5034633;28;20458;-82
2022/04/10 04:58:43;;;;;;;24.53;15.73;;;;;;;11.69;79.01;93787.66;5033794;28;20496;-82
2022/04/10 05:01:10;;;;;;;18.27;13.70;;;;;;;11.43;80.46;93810.63;5033863;28;20973;-82
2022/04/10 05:03:37;;;;;;;20.93;15.73;;;;;;;11.39;80.68;93819.81;5034073;28;20810;-81
2022/04/10 05:06:06;;;;;;;22.87;15.63;;;;;;;11.31;81.30;93825.06;5033751;28;20443;-81
2022/04/10 05:08:33;;;;;;;23.77;16.23;;;;;;;11.17;81.54;93824.66;5033979;28;20457;-81
2022/04/10 05:11:00;;;;;;;20.10;15.70;;;;;;;11.15;81.61;93834.50;5015244;28;20443;-83
2022/04/10 05:13:27;;;;;;;20.27;17.10;;;;;;;11.07;83.11;93831.88;5033894;28;20447;-83
2022/04/10 05:15:54;;;;;;;23.23;17.80;;;;;;;10.98;83.52;93843.28;5033910;28;20447;-82
2022/04/10 05:18:21;;;;;;;23.53;18.00;;;;;;;11.06;83.75;93832.03;5033754;28;21015;-82
2022/04/10 05:20:48;;;;;;;22.70;17.03;;;;;;;11.08;82.93;93820.38;5015224;28;20443;-81
2022/04/10 05:23:21;;;;;;;20.80;15.13;;;;;;;10.98;83.02;93824.09;5033640;28;20450;-82
2022/04/10 05:25:48;;;;;;;22.80;16.27;;;;;;;10.70;84.30;93813.84;5033812;28;20457;-83
2022/04/10 05:28:15;;;;;;;25.10;18.10;;;;;;;10.62;84.95;93813.78;5032789;28;20443;-83
2022/04/10 05:30:42;;;;;;;21.70;16.97;;;;;;;10.57;84.97;93818.69;5033094;28;20447;-82
2022/04/10 05:33:09;;;;;;;25.20;16.67;;;;;;;10.50;86.02;93805.38;5033537;28;20856;-83
2022/04/10 05:35:36;;;;;;;25.10;17.60;;;;;;;10.50;85.94;93810.63;5033648;28;20449;-82
2022/04/10 05:38:04;;;;;;;22.93;16.60;;;;;;;10.48;84.71;93803.91;5033138;28;20442;-82
2022/04/10 05:40:33;;;;;;;26.17;16.83;;;;;;;10.44;85.26;93815.69;5033608;28;20458;-82
2022/04/10 05:43:00;;;;;;;25.53;16.80;;;;;;;10.34;85.88;93826.25;5033226;28;20478;-82
2022/04/10 05:45:27;;;;;;;22.87;17.90;;;;;;;10.39;85.35;93807.44;5033432;28;20442;-82
2022/04/10 05:47:54;;;;;;;23.23;16.40;;;;;;;10.33;85.93;93814.13;5033143;28;20508;-82
2022/04/10 05:50:21;;;;;;;22.73;17.10;;;;;;;10.34;86.26;93813.16;5033036;28;20482;-83
2022/04/10 05:52:50;;;;;;;23.97;17.20;;;;;;;10.19;84.89;93796.31;5032298;28;20454;-83
2022/04/10 05:55:18;;;;;;;25.23;16.73;;;;;;;10.12;85.73;93845.06;5032504;28;20504;-83
2022/04/10 05:57:47;;;;;;;23.70;15.77;;;;;;;10.23;85.45;93856.19;5033224;28;20445;-82
2022/04/10 06:00:16;;;;;;;25.53;17.40;;;;;;;10.39;85.48;93844.97;4998235;28;20558;-82
2022/04/10 06:02:43;;;;;;;27.73;18.20;;;;;;;10.46;84.76;93855.69;5032883;28;20439;-82
2022/04/10 06:05:10;;;;;;;22.97;16.60;;;;;;;10.45;83.40;93875.84;5032684;28;20446;-82
2022/04/10 06:07:37;;;;;;;27.07;18.23;;;;;;;10.48;84.00;93867.66;5032601;28;20450;-82
2022/04/10 06:10:05;;;;;;;23.03;17.70;;;;;;;10.49;83.08;93876.34;5032650;28;21040;-83
2022/04/10 06:12:32;;;;;;;28.70;15.80;;;;;;;10.54;82.77;93895.06;5033015;28;20813;-83
2022/04/10 06:15:00;;;;;;;31.27;18.00;;;;;;;10.58;82.18;93895.59;5032876;28;20438;-81
2022/04/10 06:17:27;;;;;;;23.80;16.60;;;;;;;10.54;82.60;93885.41;5033078;28;20446;-83
2022/04/10 06:19:55;;;;;;;20.73;15.50;;;;;;;10.51;82.47;93901.44;5032459;28;20492;-82
2022/04/10 06:22:23;;;;;;;26.80;16.03;;;;;;;10.59;82.09;93899.84;5032453;28;20447;-83
2022/04/10 06:24:50;;;;;;;21.10;15.30;;;;;;;10.58;81.46;93885.91;5032282;28;20451;-83
2022/04/10 06:27:18;;;;;;;21.60;14.30;;;;;;;10.54;80.84;93887.19;4997669;28;20469;-83
2022/04/10 06:29:45;;;;;;;21.97;15.40;;;;;;;10.44;81.38;93889.94;5032372;28;20534;-83
2022/04/10 06:32:14;;;;;;;18.70;13.93;;;;;;;10.36;80.60;93892.47;5013959;28;20438;-81
2022/04/10 06:34:40;;;;;;;15.67;13.17;;;;;;;10.44;81.42;93897.81;5032208;28;20827;-82
2022/04/10 06:37:08;;;;;;;18.87;12.33;;;;;;;10.38;80.29;93900.19;5032581;28;20976;-83
2022/04/10 06:39:35;;;;;;;16.10;12.67;;;;;;;10.38;80.71;93898.41;5032108;28;20540;-83
2022/04/10 06:42:02;;;;;;;14.90;11.73;;;;;;;10.36;80.01;93902.16;5032608;28;20447;-82
2022/04/10 06:44:29;;;;;;;17.50;12.40;;;;;;;10.40;80.80;93900.88;5032517;28;20461;-83
2022/04/10 06:46:56;;;;;;;15.60;13.37;;;;;;;10.29;80.42;93891.47;5031900;28;20447;-83
2022/04/10 06:49:24;;;;;;;15.83;12.60;;;;;;;10.44;81.46;93889.13;5031917;28;20471;-82
2022/04/10 06:51:51;;;;;;;16.83;13.87;;;;;;;10.51;81.42;93900.63;5032118;28;20447;-82
2022/04/10 06:54:18;;;;;;;17.30;13.53;;;;;;;10.45;81.36;93904.69;5033059;28;20454;-82
2022/04/10 06:56:45;;;;;;;16.87;12.73;;;;;;;10.43;81.80;93900.59;5032520;28;20447;-82
2022/04/10 06:59:12;;;;;;;15.77;11.90;;;;;;;10.40;82.38;93899.06;5032111;28;20540;-83
2022/04/10 07:01:39;;;;;;;19.40;13.10;;;;;;;10.22;82.01;93885.19;5032033;28;21001;-82
2022/04/10 07:04:06;;;;;;;15.30;11.63;;;;;;;10.40;81.29;93908.72;5032168;28;20482;-82
2022/04/10 07:06:35;;;;;;;16.40;12.83;;;;;;;10.28;80.71;93895.06;5036269;28;20458;-83
2022/04/10 07:09:01;;;;;;;13.73;9.70;;;;;;;10.12;80.62;93902.75;5036229;28;20449;-82
2022/04/10 07:11:28;;;;;;;13.47;9.97;;;;;;;10.17;80.81;93895.28;5001053;28;20455;-82
2022/04/10 07:13:55;;;;;;;10.77;9.53;;;;;;;10.15;79.53;93905.09;5035853;28;20453;-83
2022/04/10 07:16:22;;;;;;;17.30;9.27;;;;;;;10.13;79.18;93905.25;5035811;28;20443;-82
2022/04/10 07:18:49;;;;;;;12.67;8.10;;;;;;;10.15;78.64;93892.81;5036017;28;20494;-81
2022/04/10 07:23:41;;;;;;;37.17;18.80;;;;;;;10.15;79.32;93897.22;5035948;28;20922;-82
2022/04/10 07:24:04;;;;;;;19.50;11.53;;;;;;;10.18;78.81;93899.53;5035551;28;20445;-82
2022/04/10 07:26:31;;;;;;;11.53;9.80;;;;;;;10.27;78.14;93897.84;5035944;28;20450;-82
2022/04/10 07:28:58;;;;;;;9.53;8.50;;;;;;;10.40;77.75;93895.63;5035527;28;20941;-82
2022/04/10 07:31:24;;;;;;;10.83;7.60;;;;;;;10.28;77.24;93892.44;5035550;28;20885;-82
2022/04/10 07:33:51;;;;;;;17.73;12.17;;;;;;;10.33;77.11;93902.47;5035445;28;20465;-82
2022/04/10 07:36:18;;;;;;;13.23;9.60;;;;;;;10.32;76.46;93904.25;5035574;28;20449;-82
2022/04/10 07:38:45;;;;;;;28.10;20.07;;;;;;;10.33;75.65;93898.03;5035388;28;20477;-82
2022/04/10 07:41:13;;;;;;;10.93;7.60;;;;;;;10.24;75.60;93896.34;5035407;28;20938;-83
2022/04/10 07:43:40;;;;;;;13.97;8.17;;;;;;;10.20;75.49;93915.94;5035210;28;20447;-83
2022/04/10 07:48:51;;;;;;;6.33;5.73;;;;;;;10.21;75.03;93902.72;5035580;28;20438;-83
2022/04/10 07:51:18;;;;;;;14.37;5.60;;;;;;;10.11;75.19;93908.97;5035235;28;20489;-83
2022/04/10 07:53:45;;;;;;;7.03;5.77;;;;;;;10.11;75.64;93904.53;5035435;28;20529;-83
2022/04/10 07:56:14;;;;;;;7.10;5.03;;;;;;;10.18;74.84;93920.50;5000679;28;20446;-82
2022/04/10 07:58:40;;;;;;;5.30;4.80;;;;;;;10.06;75.05;93916.47;5035316;28;20450;-83
2022/04/10 08:01:07;;;;;;;8.23;5.30;;;;;;;10.15;74.67;93910.34;5000202;28;20482;-83
2022/04/10 08:03:34;;;;;;;10.37;4.77;;;;;;;10.31;74.64;93920.13;5035092;28;20449;-83
2022/04/10 08:06:01;;;;;;;5.73;4.30;;;;;;;10.21;73.93;93918.44;5016510;28;20542;-82
2022/04/10 08:08:28;;;;;;;12.73;5.73;;;;;;;10.31;74.63;93914.91;5034903;28;20446;-82
2022/04/10 08:10:55;;;;;;;7.53;4.03;;;;;;;10.35;73.28;93924.94;5035104;28;20440;-83
2022/04/10 08:13:23;;;;;;;6.43;4.60;;;;;;;10.21;72.34;93915.00;5016661;28;20529;-83
2022/04/10 08:15:50;;;;;;;3.80;3.40;;;;;;;10.17;72.95;93911.81;5034321;28;20877;-83
2022/04/10 08:18:17;;;;;;;6.23;3.80;;;;;;;10.14;73.43;93920.00;5034789;28;20442;-82
2022/04/10 08:20:44;;;;;;;6.10;4.87;;;;;;;10.16;72.40;93915.44;5034792;28;20542;-82
2022/04/10 08:23:11;;;;;;;4.37;3.97;;;;;;;10.12;72.88;93921.09;5035602;28;20443;-82
2022/04/10 08:25:38;;;;;;;5.80;3.13;;;;;;;10.05;71.84;93928.75;5034825;28;20435;-82
2022/04/10 08:28:05;;;;;;;4.90;3.10;;;;;;;10.07;72.69;93929.41;5035112;28;20438;-82
2022/04/10 08:30:33;;;;;;;3.70;3.40;;;;;;;10.12;71.91;93926.34;5034646;28;20447;-82
2022/04/10 08:33:00;;;;;;;4.83;3.57;;;;;;;10.11;71.08;93932.56;5034727;28;20455;-82
2022/04/10 08:35:27;;;;;;;4.80;3.43;;;;;;;10.02;69.99;93942.16;5035042;28;20441;-82
2022/04/10 08:37:54;;;;;;;10.90;5.60;;;;;;;9.68;70.41;93939.38;5034268;28;20926;-83
2022/04/10 08:40:21;;;;;;;14.53;5.90;;;;;;;9.41;71.11;93944.63;5034414;28;20497;-83
2022/04/10 08:42:48;;;;;;;9.53;5.50;;;;;;;9.28;72.03;93951.03;5016112;28;20457;-82
2022/04/10 08:45:15;;;;;;;4.77;3.77;;;;;;;9.16;71.92;93949.56;5034439;28;20453;-82
2022/04/10 08:47:43;;;;;;;7.63;3.10;;;;;;;8.92;72.25;93957.09;5015707;28;20508;-83
2022/04/10 08:50:11;;;;;;;5.30;2.73;;;;;;;8.79;73.29;93967.88;5033954;28;20477;-83
2022/04/10 08:52:38;;;;;;;4.10;2.37;;;;;;;8.49;74.10;93968.09;5034149;28;20443;-82
2022/04/10 08:55:06;;;;;;;3.07;2.87;;;;;;;8.44;74.59;93957.25;5033817;28;20443;-83
2022/04/10 08:57:33;;;;;;;3.40;2.80;;;;;;;8.37;75.75;93963.00;4999538;28;20522;-82
2022/04/10 09:00:00;;;;;;;3.10;2.90;;;;;;;8.37;76.72;93977.84;5034025;28;20489;-82
2022/04/10 09:02:27;;;;;;;3.03;1.80;;;;;;;8.17;76.93;93990.09;5034237;28;20792;-82
2022/04/10 09:04:56;;;;;;;3.03;2.60;;;;;;;8.03;78.80;93969.59;5034008;28;20443;-83
2022/04/10 09:07:23;;;;;;;3.40;2.73;;;;;;;7.84;80.67;93964.38;5033997;28;20442;-83
2022/04/10 09:09:57;;;;;;;3.93;3.10;;;;;;;7.70;82.45;93976.03;5034179;28;20968;-81
2022/04/10 09:12:24;;;;;;;5.07;3.17;;;;;;;7.63;84.64;93960.09;5033751;28;20450;-83
2022/04/10 09:14:51;;;;;;;5.30;3.40;;;;;;;7.62;85.21;93975.91;5034071;28;20803;-83
2022/04/10 09:17:19;;;;;;;2.50;2.30;;;;;;;7.53;86.70;93977.53;5033983;28;20454;-82
2022/04/10 09:19:48;;;;;;;2.77;2.07;;;;;;;7.47;86.20;93981.47;5033579;28;20495;-81
2022/04/10 09:22:27;;;;;;;3.10;2.80;;;;;;;7.34;87.01;93983.53;5033534;28;20533;-83
2022/04/10 09:25:18;;;;;;;2.77;2.57;;;;;;;7.38;89.05;93971.03;5033321;28;20451;-83
2022/04/10 09:27:46;;;;;;;2.80;2.60;;;;;;;7.41;88.42;93982.03;4991439;28;21063;-81
2022/04/10 09:30:15;;;;;;;2.37;2.03;;;;;;;7.27;86.58;93990.22;4991783;28;20455;-84
2022/04/10 09:32:45;;;;;;;4.50;2.70;;;;;;;7.28;86.61;93991.88;4991604;28;21117;-82
2022/04/10 09:35:13;;;;;;;3.93;2.17;;;;;;;7.01;87.70;93994.25;4991656;28;20529;-82
2022/04/10 09:37:47;;;;;;;3.63;2.80;;;;;;;7.13;88.63;93996.63;4991922;28;20451;-84
2022/04/10 09:40:28;;;;;;;6.80;3.70;;;;;;;7.18;88.68;94004.06;4991403;28;20488;-83
2022/04/10 09:43:01;;;;;;;4.10;3.10;;;;;;;7.20;88.65;94004.75;4991729;28;20455;-82
2022/04/10 09:45:29;;;;;;;2.47;2.00;;;;;;;7.15;88.31;94010.34;4991410;28;20452;-83
2022/04/10 09:47:56;;;;;;;3.70;1.90;;;;;;;7.13;88.06;94004.44;4991519;28;20821;-82
2022/04/10 09:50:40;;;;;;;2.57;2.37;;;;;;;6.99;89.29;94009.19;4991098;28;20476;-82
2022/04/10 09:53:10;;;;;;;2.87;2.67;;;;;;;6.75;90.01;94005.09;4991731;28;20476;-82
2022/04/10 09:55:38;;;;;;;3.50;2.70;;;;;;;6.72;91.00;94000.16;4991303;28;20444;-82
2022/04/10 09:58:09;;;;;;;8.50;5.47;;;;;;;6.79;91.68;94009.09;4991240;28;20447;-82
2022/04/10 10:00:41;;;;;;;6.83;3.90;;;;;;;6.84;91.63;94006.91;4991057;28;20526;-82
2022/04/10 10:03:09;;;;;;;6.43;3.27;;;;;;;6.79;91.61;94009.09;4991274;28;20452;-82
2022/04/10 10:05:37;;;;;;;7.00;4.80;;;;;;;6.92;91.61;94014.09;5033275;28;21134;-83
2022/04/10 10:08:04;;;;;;;5.67;3.73;;;;;;;6.96;92.18;94010.28;5032794;28;20538;-83
2022/04/10 10:10:35;;;;;;;3.37;2.97;;;;;;;6.96;92.43;94015.50;5032700;28;20465;-83
2022/04/10 10:13:05;;;;;;;4.70;2.60;;;;;;;7.08;92.06;94017.06;5032827;28;20452;-83
2022/04/10 10:15:33;;;;;;;4.83;3.27;;;;;;;7.07;91.48;94025.03;5032441;28;20945;-83
2022/04/10 10:18:02;;;;;;;2.97;2.77;;;;;;;6.98;91.36;94012.78;5032556;28;20447;-82
2022/04/10 10:20:30;;;;;;;3.07;2.20;;;;;;;7.01;90.76;94020.34;5032602;28;21179;-83
2022/04/10 10:22:57;;;;;;;5.50;2.80;;;;;;;7.06;90.16;94012.94;5034199;28;20451;-83
2022/04/10 10:25:29;;;;;;;3.67;2.80;;;;;;;7.05;91.44;94016.50;5036726;28;21172;-83
2022/04/10 10:28:37;;;;;;;3.10;2.80;;;;;;;7.19;91.83;94016.13;5034288;28;20435;-83
2022/04/10 10:31:26;;;;;;;2.57;2.37;;;;;;;7.18;90.22;94014.47;5032467;28;20457;-83
2022/04/10 10:33:57;;;;;;;2.67;2.47;;;;;;;7.34;90.86;94004.41;5032353;28;20447;-83
2022/04/10 10:36:26;;;;;;;5.10;4.13;;;;;;;7.38;90.25;93999.72;5032593;28;20442;-82
2022/04/10 10:38:54;;;;;;;4.87;3.47;;;;;;;7.37;90.08;93998.91;5031834;28;20466;-82
2022/04/10 10:41:37;;;;;;;4.17;3.77;;;;;;;7.35;89.71;93993.00;5032016;28;20482;-81
2022/04/10 10:44:49;;;;;;;2.90;2.70;;;;;;;7.38;88.94;93999.72;5032370;28;20497;-81
2022/04/10 10:47:22;;;;;;;3.60;2.10;;;;;;;7.45;89.44;93999.06;4990439;28;20961;-82
2022/04/10 10:49:49;;;;;;;6.50;4.03;;;;;;;7.42;88.12;93991.50;4990300;28;20576;-83
2022/04/10 10:52:17;;;;;;;4.20;3.80;;;;;;;7.55;88.82;93991.28;4990573;28;20475;-83
2022/04/10 10:54:46;;;;;;;3.60;3.13;;;;;;;7.55;88.48;93991.28;4990464;28;20963;-83
2022/04/10 10:57:31;;;;;;;3.20;2.90;;;;;;;7.59;88.49;93987.44;4990678;28;20979;-83
2022/04/10 11:00:15;;;;;;;5.97;5.20;;;;;;;7.43;89.21;93987.09;4990459;28;20872;-82
2022/04/10 11:02:49;;;;;;;3.37;3.10;;;;;;;7.51;89.59;93983.81;4990418;28;20487;-82
2022/04/10 11:05:31;;;;;;;2.83;2.43;;;;;;;7.54;88.93;93991.41;4990472;28;20444;-82
2022/04/10 11:07:59;;;;;;;3.47;3.17;;;;;;;7.46;86.81;93990.28;4990651;28;20448;-82
2022/04/10 11:10:28;;;;;;;12.07;5.60;;;;;;;7.35;87.71;93979.13;4990149;28;20452;-82
2022/04/10 11:13:01;;;;;;;3.80;2.80;;;;;;;7.28;87.37;93984.06;4990306;28;20971;-82
2022/04/10 11:15:32;;;;;;;5.73;3.73;;;;;;;7.33;88.88;93965.38;4990496;28;20936;-82
2022/04/10 11:18:31;;;;;;;3.83;3.43;;;;;;;7.51;87.59;93968.97;4990515;28;20452;-82
2022/04/10 11:21:05;;;;;;;3.80;3.50;;;;;;;7.63;88.48;93977.53;4990373;28;20484;-82
2022/04/10 11:23:39;;;;;;;3.20;2.90;;;;;;;7.73;88.39;93983.59;5024428;28;20434;-82
2022/04/10 11:26:10;;;;;;;5.70;3.60;;;;;;;7.78;86.96;93984.00;5032303;28;20461;-82
2022/04/10 11:28:55;;;;;;;4.20;3.80;;;;;;;7.82;86.85;93988.03;5031820;28;20446;-82
2022/04/10 11:31:33;;;;;;;2.40;1.90;;;;;;;7.76;84.70;93985.94;5031776;28;20890;-81
2022/04/10 11:34:11;;;;;;;3.50;3.20;;;;;;;7.59;84.87;93971.78;5031987;28;20953;-82
2022/04/10 11:36:59;;;;;;;1.97;1.87;;;;;;;7.26;83.80;93975.53;5031827;28;20442;-83
2022/04/10 11:39:28;;;;;;;3.90;3.60;;;;;;;7.06;85.46;93979.03;5032097;28;20820;-82
2022/04/10 11:41:55;;;;;;;3.50;3.20;;;;;;;7.02;86.82;93983.69;5032079;28;20485;-82